createdAt,value
2022-07-29T00:02:25.617Z,0.90
2022-07-29T00:04:52.370Z,1.00
2022-07-29T00:07:18.945Z,1.10
2022-07-29T00:09:51.911Z,1.10
2022-07-29T00:12:26.499Z,1.00
2022-07-29T00:14:57.251Z,0.90
2022-07-29T00:17:25.205Z,0.90
2022-07-29T00:19:51.898Z,1.30
2022-07-29T00:22:19.079Z,1.10
2022-07-29T00:24:45.602Z,1.38
2022-07-29T00:27:12.135Z,0.98
2022-07-29T00:29:38.695Z,1.08
2022-07-29T00:32:05.611Z,1.40
2022-07-29T00:34:51.053Z,1.63
2022-07-29T00:37:17.598Z,1.30
2022-07-29T00:39:44.590Z,1.10
2022-07-29T00:42:11.714Z,1.00
2022-07-29T00:44:42.438Z,1.30
2022-07-29T00:47:10.790Z,1.25
2022-07-29T00:49:39.640Z,1.45
2022-07-29T00:52:07.031Z,1.17
2022-07-29T00:54:34.793Z,1.10
2022-07-29T00:57:01.857Z,0.90
2022-07-29T00:59:35.117Z,1.08
2022-07-29T01:02:03.922Z,1.48
2022-07-29T01:04:31.962Z,1.20
2022-07-29T01:06:59.631Z,1.58
2022-07-29T01:09:40.821Z,1.02
2022-07-29T01:12:22.466Z,1.40
2022-07-29T01:14:50.680Z,0.90
2022-07-29T01:17:50.413Z,0.95
2022-07-29T01:20:57.331Z,1.00
2022-07-29T01:24:02.222Z,1.02
2022-07-29T01:26:50.109Z,1.02
2022-07-29T01:29:38.992Z,1.30
2022-07-29T01:32:27.591Z,1.05
2022-07-29T01:35:02.129Z,1.25
2022-07-29T01:37:40.918Z,1.35
2022-07-29T01:40:19.362Z,1.00
2022-07-29T01:42:51.421Z,0.95
2022-07-29T01:45:28.876Z,1.60
2022-07-29T01:48:03.359Z,1.15
2022-07-29T01:50:45.517Z,1.30
2022-07-29T01:53:15.919Z,1.10
2022-07-29T01:55:45.789Z,1.58
2022-07-29T01:58:15.222Z,1.40
2022-07-29T02:00:43.671Z,1.20
2022-07-29T02:03:12.692Z,1.50
2022-07-29T02:05:42.032Z,1.17
2022-07-29T02:08:10.485Z,1.00
2022-07-29T02:10:40.320Z,1.30
2022-07-29T02:13:10.424Z,1.10
2022-07-29T02:15:38.363Z,1.13
2022-07-29T02:18:18.522Z,1.35
2022-07-29T02:20:50.661Z,1.33
2022-07-29T02:23:21.524Z,1.33
2022-07-29T02:25:52.408Z,1.52
2022-07-29T02:28:21.251Z,2.13
2022-07-29T02:30:49.611Z,1.50
2022-07-29T02:33:19.302Z,1.92
2022-07-29T02:35:48.045Z,1.80
2022-07-29T02:38:35.747Z,1.90
2022-07-29T02:41:06.989Z,1.83
2022-07-29T02:43:35.147Z,1.85
2022-07-29T02:46:05.557Z,2.10
2022-07-29T02:48:44.981Z,2.25
2022-07-29T02:51:43.672Z,2.15
2022-07-29T02:54:12.284Z,1.70
2022-07-29T02:56:41.394Z,1.40
2022-07-29T02:59:12.619Z,1.65
2022-07-29T03:01:44.595Z,2.13
2022-07-29T03:04:14.412Z,1.50
2022-07-29T03:06:44.077Z,1.50
2022-07-29T03:09:13.758Z,1.10
2022-07-29T03:11:49.925Z,1.70
2022-07-29T03:14:21.755Z,1.50
2022-07-29T03:16:49.711Z,1.85
2022-07-29T03:19:17.239Z,1.30
2022-07-29T03:21:43.813Z,2.50
2022-07-29T03:24:11.074Z,1.98
2022-07-29T03:26:38.479Z,1.63
2022-07-29T03:29:05.118Z,1.67
2022-07-29T03:31:33.340Z,1.17
2022-07-29T03:34:00.061Z,1.33
2022-07-29T03:36:26.758Z,1.40
2022-07-29T03:38:54.034Z,1.42
2022-07-29T03:41:25.183Z,2.00
2022-07-29T03:43:54.422Z,1.85
2022-07-29T03:46:24.858Z,1.30
2022-07-29T03:48:57.433Z,1.83
2022-07-29T03:51:33.282Z,1.38
2022-07-29T03:54:09.961Z,1.98
2022-07-29T03:56:47.571Z,1.70
2022-07-29T03:59:20.723Z,1.50
2022-07-29T04:01:48.091Z,1.83
2022-07-29T04:04:15.015Z,1.70
2022-07-29T04:06:44.219Z,2.05
2022-07-29T04:09:11.735Z,1.80
2022-07-29T04:12:03.139Z,2.13
2022-07-29T04:14:32.863Z,2.60
2022-07-29T04:17:04.805Z,3.22
2022-07-29T04:19:32.395Z,2.08
2022-07-29T04:22:00.528Z,2.00
2022-07-29T04:24:27.600Z,2.42
2022-07-29T04:26:54.562Z,2.20
2022-07-29T04:29:21.736Z,2.10
2022-07-29T04:31:48.504Z,2.63
2022-07-29T04:34:15.277Z,4.53
2022-07-29T04:36:43.835Z,4.40
2022-07-29T04:39:11.273Z,5.30
2022-07-29T04:41:38.041Z,4.90
2022-07-29T04:44:07.176Z,4.93
2022-07-29T04:46:35.739Z,3.00
2022-07-29T04:49:04.164Z,2.95
2022-07-29T04:51:30.771Z,2.63
2022-07-29T04:53:57.513Z,3.72
2022-07-29T04:56:24.433Z,3.17
2022-07-29T04:58:51.898Z,2.30
2022-07-29T05:01:18.825Z,2.42
2022-07-29T05:03:46.345Z,1.90
2022-07-29T05:06:14.628Z,2.15
2022-07-29T05:08:41.928Z,2.20
2022-07-29T05:11:11.547Z,1.70
2022-07-29T05:13:45.464Z,2.33
2022-07-29T05:16:15.315Z,2.10
2022-07-29T05:18:43.092Z,2.80
2022-07-29T05:21:10.942Z,2.13
2022-07-29T05:23:37.949Z,1.95
2022-07-29T05:26:04.561Z,1.60
2022-07-29T05:28:35.875Z,1.88
2022-07-29T05:31:02.768Z,2.13
2022-07-29T05:33:35.323Z,2.10
2022-07-29T05:36:06.654Z,1.98
2022-07-29T05:38:35.504Z,1.88
2022-07-29T05:41:02.287Z,2.33
2022-07-29T05:43:29.464Z,1.98
2022-07-29T05:45:56.390Z,2.20
2022-07-29T05:48:23.122Z,2.15
2022-07-29T05:50:49.938Z,2.22
2022-07-29T05:53:19.871Z,2.60
2022-07-29T05:55:51.407Z,2.35
2022-07-29T05:58:18.062Z,2.33
2022-07-29T06:00:45.545Z,2.03
2022-07-29T06:03:12.274Z,2.40
2022-07-29T06:05:38.940Z,1.85
2022-07-29T06:08:08.799Z,2.05
2022-07-29T06:10:36.190Z,1.92
2022-07-29T06:13:02.837Z,2.13
2022-07-29T06:15:29.413Z,2.47
2022-07-29T06:17:59.299Z,2.10
2022-07-29T06:20:30.774Z,1.80
2022-07-29T06:22:57.979Z,2.45
2022-07-29T06:25:24.628Z,2.45
2022-07-29T06:27:51.223Z,2.03
2022-07-29T06:30:17.906Z,3.20
2022-07-29T06:32:44.448Z,3.03
2022-07-29T06:35:41.068Z,2.63
2022-07-29T06:37:59.623Z,1.95
2022-07-29T06:40:45.693Z,2.35
2022-07-29T06:43:12.378Z,1.95
2022-07-29T06:45:42.210Z,2.30
2022-07-29T06:48:10.011Z,2.38
2022-07-29T06:50:36.829Z,2.30
2022-07-29T06:53:03.814Z,2.30
2022-07-29T06:55:30.569Z,2.63
2022-07-29T06:57:57.148Z,2.33
2022-07-29T07:00:24.246Z,3.20
2022-07-29T07:02:51.219Z,2.90
2022-07-29T07:05:17.838Z,2.67
2022-07-29T07:07:44.398Z,3.17
2022-07-29T07:10:11.033Z,2.67
2022-07-29T07:12:37.650Z,2.72
2022-07-29T07:15:04.714Z,2.92
2022-07-29T07:17:31.353Z,2.95
2022-07-29T07:19:57.923Z,3.00
2022-07-29T07:22:24.485Z,2.70
2022-07-29T07:24:51.189Z,3.20
2022-07-29T07:27:17.786Z,3.38
2022-07-29T07:29:44.534Z,3.30
2022-07-29T07:32:11.165Z,3.20
2022-07-29T07:34:38.949Z,2.92
2022-07-29T07:37:07.011Z,3.50
2022-07-29T07:39:33.801Z,4.05
2022-07-29T07:42:00.431Z,3.08
2022-07-29T07:44:27.115Z,3.05
2022-07-29T07:46:54.653Z,4.32
2022-07-29T07:49:21.732Z,4.63
2022-07-29T07:51:50.505Z,4.03
2022-07-29T07:54:18.650Z,3.70
2022-07-29T07:56:49.950Z,3.60
2022-07-29T07:59:19.753Z,3.92
2022-07-29T08:01:50.441Z,4.00
2022-07-29T08:06:56.571Z,3.05
2022-07-29T08:09:29.626Z,3.13
2022-07-29T08:11:57.806Z,2.70
2022-07-29T08:14:24.546Z,2.72
2022-07-29T08:16:52.375Z,3.50
2022-07-29T08:19:19.251Z,2.50
2022-07-29T08:21:46.301Z,2.10
2022-07-29T08:24:31.366Z,2.80
2022-07-29T08:26:58.036Z,2.80
2022-07-29T08:29:25.230Z,2.42
2022-07-29T08:31:52.524Z,3.45
2022-07-29T08:34:19.282Z,2.83
2022-07-29T08:36:53.646Z,2.90
2022-07-29T08:39:20.326Z,3.10
2022-07-29T08:41:56.599Z,3.28
2022-07-29T08:44:30.793Z,3.63
2022-07-29T08:46:58.110Z,3.53
2022-07-29T08:49:24.809Z,3.10
2022-07-29T08:51:52.479Z,3.13
2022-07-29T08:54:19.771Z,3.05
2022-07-29T08:56:50.876Z,2.65
2022-07-29T08:59:21.975Z,3.08
2022-07-29T09:01:50.599Z,2.55
2022-07-29T09:04:19.676Z,2.80
2022-07-29T09:06:50.343Z,2.70
2022-07-29T09:09:17.041Z,2.80
2022-07-29T09:11:43.928Z,2.70
2022-07-29T09:14:13.636Z,3.13
2022-07-29T09:16:54.023Z,3.03
2022-07-29T09:19:38.860Z,2.70
2022-07-29T09:22:13.073Z,2.60
2022-07-29T09:24:46.163Z,3.08
2022-07-29T09:27:26.816Z,2.67
2022-07-29T09:29:58.444Z,2.50
2022-07-29T09:32:25.192Z,3.47
2022-07-29T09:34:53.684Z,2.83
2022-07-29T09:37:30.527Z,3.30
2022-07-29T09:39:57.155Z,2.90
2022-07-29T09:42:33.356Z,3.20
2022-07-29T09:44:59.977Z,2.38
2022-07-29T09:47:42.371Z,2.85
2022-07-29T09:50:09.125Z,3.50
2022-07-29T09:52:46.487Z,3.75
2022-07-29T09:55:13.859Z,3.35
2022-07-29T09:57:45.604Z,3.58
2022-07-29T10:00:16.221Z,3.00
2022-07-29T10:02:45.134Z,2.80
2022-07-29T10:05:42.943Z,3.45
2022-07-29T10:08:11.100Z,2.75
2022-07-29T10:10:42.785Z,3.08
2022-07-29T10:13:18.403Z,2.60
2022-07-29T10:15:46.783Z,2.88
2022-07-29T10:18:15.500Z,2.47
2022-07-29T10:20:42.425Z,3.30
2022-07-29T10:23:10.072Z,2.55
2022-07-29T10:25:37.064Z,2.83
2022-07-29T10:28:03.807Z,2.90
2022-07-29T10:30:30.461Z,2.45
2022-07-29T10:33:02.798Z,2.70
2022-07-29T10:35:43.111Z,3.10
2022-07-29T10:38:35.225Z,2.65
2022-07-29T10:41:44.357Z,2.58
2022-07-29T10:44:19.480Z,2.53
2022-07-29T10:46:51.498Z,2.08
2022-07-29T10:49:25.284Z,2.45
2022-07-29T10:52:00.296Z,2.72
2022-07-29T10:54:38.251Z,2.38
2022-07-29T10:57:53.380Z,2.10
2022-07-29T11:00:19.551Z,2.35
2022-07-29T11:02:49.992Z,1.90
2022-07-29T11:05:20.174Z,2.20
2022-07-29T11:08:19.560Z,1.80
2022-07-29T11:10:48.362Z,2.33
2022-07-29T11:13:44.636Z,2.42
2022-07-29T11:16:13.774Z,2.17
2022-07-29T11:19:30.755Z,2.50
2022-07-29T11:21:58.761Z,2.35
2022-07-29T11:24:29.263Z,2.03
2022-07-29T11:27:21.428Z,2.33
2022-07-29T11:29:56.733Z,2.70
2022-07-29T11:32:29.294Z,2.20
2022-07-29T11:35:37.846Z,1.85
2022-07-29T11:38:28.369Z,1.92
2022-07-29T11:41:23.801Z,2.13
2022-07-29T11:46:47.996Z,3.70
2022-07-29T11:49:22.100Z,3.55
2022-07-29T11:52:02.551Z,3.95
2022-07-29T11:54:38.907Z,3.95
2022-07-29T11:57:22.689Z,4.47
2022-07-29T11:59:49.696Z,3.42
2022-07-29T12:02:37.220Z,3.22
2022-07-29T12:05:10.769Z,3.80
2022-07-29T12:07:03.545Z,2.40
2022-07-29T12:07:39.532Z,3.83
2022-07-29T12:10:11.633Z,3.83
2022-07-29T12:12:53.699Z,5.28
2022-07-29T12:15:24.958Z,3.70
2022-07-29T12:18:19.270Z,4.18
2022-07-29T12:20:46.942Z,3.72
2022-07-29T12:23:14.109Z,3.60
2022-07-29T12:25:44.465Z,3.70
2022-07-29T12:28:26.808Z,3.75
2022-07-29T12:30:54.476Z,2.58
2022-07-29T12:33:22.508Z,2.85
2022-07-29T12:36:06.895Z,2.92
2022-07-29T12:38:41.178Z,4.63
2022-07-29T12:41:08.102Z,3.78
2022-07-29T12:43:34.742Z,5.68
2022-07-29T12:46:13.798Z,4.10
2022-07-29T12:48:42.785Z,3.10
2022-07-29T12:51:12.462Z,3.50
2022-07-29T12:53:39.973Z,4.65
2022-07-29T12:56:41.320Z,3.75
2022-07-29T12:59:16.307Z,3.55
2022-07-29T13:01:44.073Z,3.65
2022-07-29T13:04:10.856Z,3.38
2022-07-29T13:06:50.998Z,3.50
2022-07-29T13:09:20.242Z,4.07
2022-07-29T13:11:51.358Z,3.08
2022-07-29T13:14:33.210Z,3.15
2022-07-29T13:17:07.399Z,2.72
2022-07-29T13:19:51.854Z,2.80
2022-07-29T13:22:30.187Z,2.60
2022-07-29T13:24:59.414Z,2.78
2022-07-29T13:27:28.447Z,3.15
2022-07-29T13:29:57.512Z,3.22
2022-07-29T13:32:29.168Z,2.70
2022-07-29T13:34:57.469Z,3.10
2022-07-29T13:37:24.230Z,2.83
2022-07-29T13:39:52.966Z,2.30
2022-07-29T13:42:20.506Z,2.67
2022-07-29T13:44:47.120Z,2.40
2022-07-29T13:47:13.878Z,2.45
2022-07-29T13:49:40.587Z,2.50
2022-07-29T13:52:08.375Z,2.50
2022-07-29T13:54:41.945Z,2.47
2022-07-29T13:57:09.386Z,3.22
2022-07-29T13:59:36.191Z,2.45
2022-07-29T14:02:03.538Z,2.97
2022-07-29T14:04:30.254Z,2.58
2022-07-29T14:06:56.907Z,3.05
2022-07-29T14:09:23.899Z,2.50
2022-07-29T14:11:52.223Z,2.70
2022-07-29T14:14:18.854Z,2.40
2022-07-29T14:16:47.781Z,2.97
2022-07-29T14:19:18.659Z,2.30
2022-07-29T14:21:45.642Z,3.00
2022-07-29T14:24:17.666Z,2.50
2022-07-29T14:26:48.408Z,2.35
2022-07-29T14:29:15.039Z,2.45
2022-07-29T14:31:41.766Z,1.90
2022-07-29T14:34:08.383Z,2.65
2022-07-29T14:36:35.771Z,1.90
2022-07-29T14:39:02.377Z,2.05
2022-07-29T14:41:29.198Z,1.88
2022-07-29T14:43:55.986Z,1.95
2022-07-29T14:46:22.907Z,2.20
2022-07-29T14:48:49.707Z,1.88
2022-07-29T14:51:16.470Z,1.95
2022-07-29T14:53:43.082Z,2.25
2022-07-29T14:56:34.305Z,2.05
2022-07-29T14:58:59.730Z,1.85
2022-07-29T15:01:26.361Z,1.70
2022-07-29T15:03:55.761Z,2.35
2022-07-29T15:06:26.178Z,1.35
2022-07-29T15:08:52.864Z,1.70
2022-07-29T15:11:19.563Z,1.88
2022-07-29T15:13:46.131Z,1.50
2022-07-29T15:16:12.788Z,1.92
2022-07-29T15:18:39.503Z,1.70
2022-07-29T15:21:07.808Z,1.27
2022-07-29T15:23:37.175Z,2.38
2022-07-29T15:26:07.567Z,1.30
2022-07-29T15:28:34.167Z,1.70
2022-07-29T15:31:01.350Z,1.98
2022-07-29T15:33:28.490Z,1.52
2022-07-29T15:35:57.288Z,1.98
2022-07-29T15:38:28.931Z,1.50
2022-07-29T15:40:55.760Z,1.70
2022-07-29T15:43:23.026Z,1.77
2022-07-29T15:46:08.427Z,1.77
2022-07-29T15:48:39.970Z,1.70
2022-07-29T15:51:06.560Z,1.80
2022-07-29T15:53:33.823Z,1.48
2022-07-29T15:56:02.173Z,1.77
2022-07-29T15:58:29.145Z,1.60
2022-07-29T16:00:56.324Z,1.63
2022-07-29T16:03:23.292Z,1.52
2022-07-29T16:05:50.362Z,1.20
2022-07-29T16:08:17.397Z,1.67
2022-07-29T16:10:44.302Z,1.58
2022-07-29T16:13:10.908Z,2.17
2022-07-29T16:15:43.877Z,1.55
2022-07-29T16:18:10.506Z,3.28
2022-07-29T16:20:37.565Z,1.63
2022-07-29T16:23:04.212Z,1.75
2022-07-29T16:25:57.418Z,1.40
2022-07-29T16:28:21.832Z,1.90
2022-07-29T16:30:48.805Z,1.83
2022-07-29T16:33:15.488Z,2.22
2022-07-29T16:35:42.066Z,1.90
2022-07-29T16:38:08.595Z,2.05
2022-07-29T16:40:35.404Z,2.00
2022-07-29T16:43:01.942Z,1.90
2022-07-29T16:45:31.474Z,1.80
2022-07-29T16:48:10.481Z,2.08
2022-07-29T16:50:38.476Z,1.55
2022-07-29T16:53:05.033Z,1.75
2022-07-29T16:55:31.656Z,1.63
2022-07-29T16:57:58.314Z,1.73
2022-07-29T17:00:24.892Z,2.00
2022-07-29T17:02:51.510Z,1.77
2022-07-29T17:05:18.264Z,1.85
2022-07-29T17:07:44.898Z,1.88
2022-07-29T17:10:11.733Z,1.92
2022-07-29T17:12:39.364Z,1.70
2022-07-29T17:15:08.580Z,1.85
2022-07-29T17:17:38.705Z,1.70
2022-07-29T17:22:47.862Z,2.30
2022-07-29T17:25:21.189Z,1.90
2022-07-29T17:27:50.633Z,1.50
2022-07-29T17:30:17.913Z,1.63
2022-07-29T17:32:44.766Z,1.70
2022-07-29T17:35:30.818Z,1.55
2022-07-29T17:40:24.240Z,1.40
2022-07-29T17:42:51.148Z,1.30
2022-07-29T17:45:18.421Z,1.70
2022-07-29T17:47:45.364Z,1.42
2022-07-29T17:50:12.074Z,1.50
2022-07-29T17:52:39.204Z,1.70
2022-07-29T17:55:07.428Z,1.40
2022-07-29T17:57:34.199Z,1.83
2022-07-29T18:00:00.912Z,1.63
2022-07-29T18:02:28.468Z,1.58
2022-07-29T18:04:55.359Z,1.40
2022-07-29T18:07:21.974Z,1.60
2022-07-29T18:09:48.618Z,2.05
2022-07-29T18:12:15.241Z,1.92
2022-07-29T18:14:42.088Z,1.50
2022-07-29T18:17:08.760Z,1.80
2022-07-29T18:19:35.416Z,2.00
2022-07-29T18:22:05.221Z,1.50
2022-07-29T18:24:32.943Z,1.50
2022-07-29T18:26:59.993Z,1.73
2022-07-29T18:29:28.951Z,2.45
2022-07-29T18:31:56.275Z,1.85
2022-07-29T18:34:22.899Z,1.70
2022-07-29T18:36:49.482Z,1.30
2022-07-29T18:39:21.243Z,1.60
2022-07-29T18:41:50.604Z,1.48
2022-07-29T18:44:19.120Z,1.50
2022-07-29T18:46:55.442Z,1.58
2022-07-29T18:49:22.728Z,2.42
2022-07-29T18:51:50.095Z,1.75
2022-07-29T18:54:17.554Z,1.60
2022-07-29T18:56:45.429Z,1.60
2022-07-29T18:59:17.144Z,1.92
2022-07-29T19:01:44.695Z,2.20
2022-07-29T19:04:15.301Z,1.70
2022-07-29T19:06:42.161Z,1.77
2022-07-29T19:09:09.253Z,1.75
2022-07-29T19:11:36.769Z,1.67
2022-07-29T19:14:04.772Z,1.80
2022-07-29T19:16:31.949Z,1.52
2022-07-29T19:18:58.670Z,2.03
2022-07-29T19:21:25.364Z,1.85
2022-07-29T19:24:01.908Z,2.03
2022-07-29T19:26:36.404Z,1.90
2022-07-29T19:29:03.426Z,2.30
2022-07-29T19:31:30.412Z,2.47
2022-07-29T19:33:57.138Z,2.25
2022-07-29T19:36:23.694Z,2.13
2022-07-29T19:38:51.310Z,2.33
2022-07-29T19:41:17.939Z,2.00
2022-07-29T19:43:51.727Z,2.00
2022-07-29T19:46:20.415Z,2.00
2022-07-29T19:48:47.078Z,1.90
2022-07-29T19:51:13.789Z,2.10
2022-07-29T19:53:40.325Z,1.90
2022-07-29T19:56:08.969Z,1.75
2022-07-29T19:58:36.077Z,2.17
2022-07-29T20:01:03.052Z,2.00
2022-07-29T20:03:40.358Z,1.95
2022-07-29T20:06:07.599Z,2.15
2022-07-29T20:08:34.620Z,2.13
2022-07-29T20:11:01.221Z,1.98
2022-07-29T20:13:27.901Z,2.20
2022-07-29T20:15:54.552Z,2.35
2022-07-29T20:18:21.328Z,3.25
2022-07-29T20:20:49.537Z,2.42
2022-07-29T20:23:18.251Z,2.30
2022-07-29T20:25:45.304Z,2.30
2022-07-29T20:28:11.905Z,1.95
2022-07-29T20:30:38.788Z,2.85
2022-07-29T20:33:05.718Z,6.20
2022-07-29T20:35:32.436Z,5.53
2022-07-29T20:38:00.309Z,4.93
2022-07-29T20:40:27.688Z,5.00
2022-07-29T20:42:55.223Z,3.80
2022-07-29T20:45:23.379Z,3.80
2022-07-29T20:47:51.622Z,3.75
2022-07-29T20:50:19.106Z,3.75
2022-07-29T20:52:45.775Z,3.58
2022-07-29T20:55:12.434Z,3.08
2022-07-29T20:57:40.019Z,3.40
2022-07-29T21:00:07.798Z,2.80
2022-07-29T21:02:34.730Z,2.60
2022-07-29T21:05:01.441Z,2.53
2022-07-29T21:07:28.069Z,3.05
2022-07-29T21:09:54.667Z,3.00
2022-07-29T21:12:21.495Z,3.47
2022-07-29T21:14:48.216Z,2.88
2022-07-29T21:17:16.625Z,3.30
2022-07-29T21:19:43.289Z,3.58
2022-07-29T21:22:10.535Z,2.83
2022-07-29T21:24:37.495Z,3.00
2022-07-29T21:27:23.183Z,2.88
2022-07-29T21:29:50.073Z,2.72
2022-07-29T21:32:30.130Z,3.05
2022-07-29T21:34:58.022Z,2.53
2022-07-29T21:37:24.805Z,3.05
2022-07-29T21:39:51.616Z,2.83
2022-07-29T21:42:18.603Z,2.42
2022-07-29T21:44:45.192Z,3.10
2022-07-29T21:47:11.932Z,2.58
2022-07-29T21:49:39.085Z,2.20
2022-07-29T21:52:06.173Z,2.28
2022-07-29T21:54:34.769Z,2.47
2022-07-29T21:57:02.013Z,2.60
2022-07-29T21:59:29.146Z,2.85
2022-07-29T22:01:55.917Z,2.53
2022-07-29T22:04:22.604Z,3.22
2022-07-29T22:06:49.541Z,2.85
2022-07-29T22:09:16.132Z,2.33
2022-07-29T22:11:43.554Z,2.92
2022-07-29T22:14:10.389Z,2.67
2022-07-29T22:16:37.612Z,2.63
2022-07-29T22:19:04.244Z,2.70
2022-07-29T22:21:31.495Z,2.50
2022-07-29T22:23:58.344Z,2.70
2022-07-29T22:26:24.997Z,2.67
2022-07-29T22:28:51.577Z,2.67
2022-07-29T22:31:18.515Z,2.95
2022-07-29T22:33:45.229Z,2.80
2022-07-29T22:36:11.809Z,2.83
2022-07-29T22:38:38.470Z,2.70
2022-07-29T22:41:05.342Z,2.70
2022-07-29T22:43:31.992Z,2.42
2022-07-29T22:45:58.850Z,2.67
2022-07-29T22:48:25.498Z,3.53
2022-07-29T22:50:52.114Z,2.42
2022-07-29T22:53:18.800Z,2.47
2022-07-29T22:55:45.414Z,2.63
2022-07-29T22:58:12.069Z,2.50
2022-07-29T23:00:38.697Z,3.13
2022-07-29T23:03:05.259Z,2.83
2022-07-29T23:05:32.509Z,3.13
2022-07-29T23:07:59.280Z,3.20
2022-07-29T23:10:26.164Z,2.78
2022-07-29T23:12:53.004Z,3.25
2022-07-29T23:15:19.785Z,3.25
2022-07-29T23:17:46.710Z,3.33
2022-07-29T23:20:14.909Z,2.58
2022-07-29T23:22:41.924Z,2.70
2022-07-29T23:25:09.095Z,3.10
2022-07-29T23:27:35.939Z,2.95
2022-07-29T23:30:03.265Z,3.17
2022-07-29T23:32:30.016Z,2.83
2022-07-29T23:34:56.959Z,3.25
2022-07-29T23:37:23.517Z,2.72
2022-07-29T23:39:50.184Z,3.08
2022-07-29T23:42:16.753Z,2.92
2022-07-29T23:44:43.303Z,3.08
2022-07-29T23:47:09.928Z,3.17
2022-07-29T23:49:36.453Z,3.20
2022-07-29T23:52:03.074Z,3.10
2022-07-29T23:54:29.740Z,2.92
2022-07-29T23:56:57.833Z,2.90
2022-07-29T23:59:24.886Z,3.40
